sensor_id;sensor_type;location;lat;lon;timestamp;P1;durP1;ratioP1;P2;durP2;ratioP2
17614;SDS011;8926;49.720;6.576;2023-06-01T00:02:13;1.17;;;1.10;;
17614;SDS011;8926;49.720;6.576;2023-06-01T00:04:39;1.50;;;1.40;;
17614;SDS011;8926;49.720;6.576;2023-06-01T00:07:06;1.37;;;1.03;;
17614;SDS011;8926;49.720;6.576;2023-06-01T00:09:35;1.20;;;1.20;;
17614;SDS011;8926;49.720;6.576;2023-06-01T00:12:01;1.50;;;1.40;;
17614;SDS011;8926;49.720;6.576;2023-06-01T00:14:26;1.00;;;1.00;;
17614;SDS011;8926;49.720;6.576;2023-06-01T00:16:52;1.17;;;1.17;;
17614;SDS011;8926;49.720;6.576;2023-06-01T00:19:17;1.50;;;1.40;;
17614;SDS011;8926;49.720;6.576;2023-06-01T00:21:43;1.50;;;1.40;;
17614;SDS011;8926;49.720;6.576;2023-06-01T00:24:08;1.50;;;1.40;;
17614;SDS011;8926;49.720;6.576;2023-06-01T00:26:34;1.10;;;1.10;;
17614;SDS011;8926;49.720;6.576;2023-06-01T00:29:00;1.40;;;1.30;;
17614;SDS011;8926;49.720;6.576;2023-06-01T00:31:25;1.30;;;1.20;;
17614;SDS011;8926;49.720;6.576;2023-06-01T00:33:51;1.40;;;1.30;;
17614;SDS011;8926;49.720;6.576;2023-06-01T00:36:17;1.40;;;1.27;;
17614;SDS011;8926;49.720;6.576;2023-06-01T00:38:43;1.77;;;1.47;;
17614;SDS011;8926;49.720;6.576;2023-06-01T00:41:08;1.30;;;1.20;;
17614;SDS011;8926;49.720;6.576;2023-06-01T00:43:33;1.30;;;1.20;;
17614;SDS011;8926;49.720;6.576;2023-06-01T00:45:59;1.10;;;1.10;;
17614;SDS011;8926;49.720;6.576;2023-06-01T00:48:24;2.23;;;1.50;;
17614;SDS011;8926;49.720;6.576;2023-06-01T00:50:50;1.50;;;1.40;;
17614;SDS011;8926;49.720;6.576;2023-06-01T00:53:17;2.43;;;1.70;;
17614;SDS011;8926;49.720;6.576;2023-06-01T00:55:43;2.10;;;1.67;;
17614;SDS011;8926;49.720;6.576;2023-06-01T00:58:09;1.83;;;1.73;;
17614;SDS011;8926;49.720;6.576;2023-06-01T01:00:36;1.93;;;1.80;;
17614;SDS011;8926;49.720;6.576;2023-06-01T01:03:02;1.60;;;1.50;;
17614;SDS011;8926;49.720;6.576;2023-06-01T01:05:32;1.67;;;1.57;;
17614;SDS011;8926;49.720;6.576;2023-06-01T01:13:37;1.60;;;1.50;;
17614;SDS011;8926;49.720;6.576;2023-06-01T01:16:18;1.63;;;1.53;;
17614;SDS011;8926;49.720;6.576;2023-06-01T01:18:54;1.33;;;1.23;;
17614;SDS011;8926;49.720;6.576;2023-06-01T01:21:32;1.53;;;1.40;;
17614;SDS011;8926;49.720;6.576;2023-06-01T01:27:10;2.40;;;2.20;;
17614;SDS011;8926;49.720;6.576;2023-06-01T01:29:38;2.07;;;1.97;;
17614;SDS011;8926;49.720;6.576;2023-06-01T01:32:06;2.83;;;2.40;;
17614;SDS011;8926;49.720;6.576;2023-06-01T01:34:33;2.43;;;1.90;;
17614;SDS011;8926;49.720;6.576;2023-06-01T01:37:01;2.47;;;2.27;;
17614;SDS011;8926;49.720;6.576;2023-06-01T01:39:26;2.63;;;2.13;;
17614;SDS011;8926;49.720;6.576;2023-06-01T01:41:52;1.77;;;1.67;;
17614;SDS011;8926;49.720;6.576;2023-06-01T01:44:17;1.93;;;1.83;;
17614;SDS011;8926;49.720;6.576;2023-06-01T01:46:56;2.77;;;2.20;;
17614;SDS011;8926;49.720;6.576;2023-06-01T01:49:48;2.43;;;2.23;;
17614;SDS011;8926;49.720;6.576;2023-06-01T01:52:25;2.17;;;2.07;;
17614;SDS011;8926;49.720;6.576;2023-06-01T01:54:56;2.13;;;2.00;;
17614;SDS011;8926;49.720;6.576;2023-06-01T01:57:23;1.90;;;1.70;;
17614;SDS011;8926;49.720;6.576;2023-06-01T01:59:50;1.83;;;1.73;;
17614;SDS011;8926;49.720;6.576;2023-06-01T02:02:17;2.27;;;2.00;;
17614;SDS011;8926;49.720;6.576;2023-06-01T02:04:43;2.10;;;2.00;;
17614;SDS011;8926;49.720;6.576;2023-06-01T02:07:11;1.80;;;1.70;;
17614;SDS011;8926;49.720;6.576;2023-06-01T02:09:36;1.53;;;1.43;;
17614;SDS011;8926;49.720;6.576;2023-06-01T02:12:03;1.50;;;1.40;;
17614;SDS011;8926;49.720;6.576;2023-06-01T02:14:28;1.50;;;1.40;;
17614;SDS011;8926;49.720;6.576;2023-06-01T02:16:54;1.60;;;1.50;;
17614;SDS011;8926;49.720;6.576;2023-06-01T02:19:20;1.73;;;1.63;;
17614;SDS011;8926;49.720;6.576;2023-06-01T02:21:45;1.90;;;1.80;;
17614;SDS011;8926;49.720;6.576;2023-06-01T02:24:10;1.60;;;1.50;;
17614;SDS011;8926;49.720;6.576;2023-06-01T02:26:36;1.57;;;1.33;;
17614;SDS011;8926;49.720;6.576;2023-06-01T02:29:01;1.70;;;1.60;;
17614;SDS011;8926;49.720;6.576;2023-06-01T02:31:27;1.60;;;1.50;;
17614;SDS011;8926;49.720;6.576;2023-06-01T02:33:53;1.40;;;1.30;;
17614;SDS011;8926;49.720;6.576;2023-06-01T02:36:18;2.53;;;1.30;;
17614;SDS011;8926;49.720;6.576;2023-06-01T02:38:43;1.30;;;1.20;;
17614;SDS011;8926;49.720;6.576;2023-06-01T02:41:09;1.40;;;1.30;;
17614;SDS011;8926;49.720;6.576;2023-06-01T02:43:34;1.23;;;1.23;;
17614;SDS011;8926;49.720;6.576;2023-06-01T02:46:00;1.40;;;1.30;;
17614;SDS011;8926;49.720;6.576;2023-06-01T02:48:25;1.70;;;1.60;;
17614;SDS011;8926;49.720;6.576;2023-06-01T02:50:51;1.83;;;1.73;;
17614;SDS011;8926;49.720;6.576;2023-06-01T02:53:16;1.40;;;1.30;;
17614;SDS011;8926;49.720;6.576;2023-06-01T02:55:42;1.50;;;1.40;;
17614;SDS011;8926;49.720;6.576;2023-06-01T02:58:07;1.30;;;1.20;;
17614;SDS011;8926;49.720;6.576;2023-06-01T03:00:39;1.40;;;1.40;;
17614;SDS011;8926;49.720;6.576;2023-06-01T03:03:05;1.70;;;1.60;;
17614;SDS011;8926;49.720;6.576;2023-06-01T03:05:30;1.70;;;1.60;;
17614;SDS011;8926;49.720;6.576;2023-06-01T03:07:58;1.73;;;1.37;;
17614;SDS011;8926;49.720;6.576;2023-06-01T03:10:23;1.53;;;1.43;;
17614;SDS011;8926;49.720;6.576;2023-06-01T03:12:49;1.70;;;1.60;;
17614;SDS011;8926;49.720;6.576;2023-06-01T03:15:14;1.97;;;1.80;;
17614;SDS011;8926;49.720;6.576;2023-06-01T03:17:40;1.40;;;1.30;;
17614;SDS011;8926;49.720;6.576;2023-06-01T03:20:06;1.60;;;1.50;;
17614;SDS011;8926;49.720;6.576;2023-06-01T03:22:39;1.63;;;1.53;;
17614;SDS011;8926;49.720;6.576;2023-06-01T03:25:08;1.70;;;1.60;;
17614;SDS011;8926;49.720;6.576;2023-06-01T03:27:33;1.60;;;1.50;;
17614;SDS011;8926;49.720;6.576;2023-06-01T03:29:59;2.07;;;1.87;;
17614;SDS011;8926;49.720;6.576;2023-06-01T03:32:26;1.70;;;1.60;;
17614;SDS011;8926;49.720;6.576;2023-06-01T03:34:51;1.90;;;1.80;;
17614;SDS011;8926;49.720;6.576;2023-06-01T03:37:16;1.60;;;1.50;;
17614;SDS011;8926;49.720;6.576;2023-06-01T03:39:42;1.60;;;1.50;;
17614;SDS011;8926;49.720;6.576;2023-06-01T03:42:07;1.87;;;1.77;;
17614;SDS011;8926;49.720;6.576;2023-06-01T03:44:33;1.60;;;1.50;;
17614;SDS011;8926;49.720;6.576;2023-06-01T03:46:58;1.60;;;1.50;;
17614;SDS011;8926;49.720;6.576;2023-06-01T03:49:23;1.90;;;1.80;;
17614;SDS011;8926;49.720;6.576;2023-06-01T03:51:48;1.60;;;1.50;;
17614;SDS011;8926;49.720;6.576;2023-06-01T03:54:14;1.57;;;1.47;;
17614;SDS011;8926;49.720;6.576;2023-06-01T03:56:39;1.80;;;1.70;;
17614;SDS011;8926;49.720;6.576;2023-06-01T03:59:05;1.63;;;1.53;;
17614;SDS011;8926;49.720;6.576;2023-06-01T04:01:35;1.60;;;1.50;;
17614;SDS011;8926;49.720;6.576;2023-06-01T04:04:04;2.00;;;1.90;;
17614;SDS011;8926;49.720;6.576;2023-06-01T04:06:30;1.67;;;1.57;;
17614;SDS011;8926;49.720;6.576;2023-06-01T04:09:00;2.10;;;1.90;;
17614;SDS011;8926;49.720;6.576;2023-06-01T04:11:31;2.03;;;1.87;;
17614;SDS011;8926;49.720;6.576;2023-06-01T04:13:57;1.93;;;1.77;;
17614;SDS011;8926;49.720;6.576;2023-06-01T04:16:22;1.40;;;1.30;;
17614;SDS011;8926;49.720;6.576;2023-06-01T04:18:47;2.07;;;1.90;;
17614;SDS011;8926;49.720;6.576;2023-06-01T04:21:13;1.93;;;1.70;;
17614;SDS011;8926;49.720;6.576;2023-06-01T04:23:38;1.83;;;1.70;;
17614;SDS011;8926;49.720;6.576;2023-06-01T04:26:03;1.60;;;1.50;;
17614;SDS011;8926;49.720;6.576;2023-06-01T04:28:30;1.70;;;1.60;;
17614;SDS011;8926;49.720;6.576;2023-06-01T04:30:57;1.92;;;1.83;;
17614;SDS011;8926;49.720;6.576;2023-06-01T04:33:23;1.47;;;1.37;;
17614;SDS011;8926;49.720;6.576;2023-06-01T04:35:49;1.70;;;1.60;;
17614;SDS011;8926;49.720;6.576;2023-06-01T04:38:18;1.43;;;1.33;;
17614;SDS011;8926;49.720;6.576;2023-06-01T04:40:44;1.27;;;1.27;;
17614;SDS011;8926;49.720;6.576;2023-06-01T04:43:12;1.47;;;1.37;;
17614;SDS011;8926;49.720;6.576;2023-06-01T04:45:38;1.63;;;1.53;;
17614;SDS011;8926;49.720;6.576;2023-06-01T04:48:04;1.27;;;1.20;;
17614;SDS011;8926;49.720;6.576;2023-06-01T04:50:36;1.73;;;1.63;;
17614;SDS011;8926;49.720;6.576;2023-06-01T04:53:02;1.47;;;1.37;;
17614;SDS011;8926;49.720;6.576;2023-06-01T04:55:28;1.60;;;1.50;;
17614;SDS011;8926;49.720;6.576;2023-06-01T04:57:53;2.30;;;1.77;;
17614;SDS011;8926;49.720;6.576;2023-06-01T05:00:18;1.70;;;1.60;;
17614;SDS011;8926;49.720;6.576;2023-06-01T05:02:44;2.37;;;2.17;;
17614;SDS011;8926;49.720;6.576;2023-06-01T05:05:12;2.07;;;1.87;;
17614;SDS011;8926;49.720;6.576;2023-06-01T05:07:39;3.33;;;1.90;;
17614;SDS011;8926;49.720;6.576;2023-06-01T05:10:05;1.83;;;1.73;;
17614;SDS011;8926;49.720;6.576;2023-06-01T05:12:32;2.27;;;2.07;;
17614;SDS011;8926;49.720;6.576;2023-06-01T05:14:58;1.90;;;1.70;;
17614;SDS011;8926;49.720;6.576;2023-06-01T05:17:24;2.20;;;2.00;;
17614;SDS011;8926;49.720;6.576;2023-06-01T05:19:50;1.67;;;1.57;;
17614;SDS011;8926;49.720;6.576;2023-06-01T05:22:15;1.70;;;1.60;;
17614;SDS011;8926;49.720;6.576;2023-06-01T05:24:41;1.80;;;1.70;;
17614;SDS011;8926;49.720;6.576;2023-06-01T05:27:06;1.93;;;1.83;;
17614;SDS011;8926;49.720;6.576;2023-06-01T05:29:31;1.63;;;1.53;;
17614;SDS011;8926;49.720;6.576;2023-06-01T05:31:57;1.50;;;1.40;;
17614;SDS011;8926;49.720;6.576;2023-06-01T05:34:22;1.50;;;1.40;;
17614;SDS011;8926;49.720;6.576;2023-06-01T05:36:47;1.60;;;1.50;;
17614;SDS011;8926;49.720;6.576;2023-06-01T05:39:13;1.67;;;1.57;;
17614;SDS011;8926;49.720;6.576;2023-06-01T05:41:39;1.80;;;1.70;;
17614;SDS011;8926;49.720;6.576;2023-06-01T05:44:05;1.83;;;1.73;;
17614;SDS011;8926;49.720;6.576;2023-06-01T05:46:30;1.60;;;1.50;;
17614;SDS011;8926;49.720;6.576;2023-06-01T05:48:56;1.50;;;1.40;;
17614;SDS011;8926;49.720;6.576;2023-06-01T05:51:21;1.40;;;1.30;;
17614;SDS011;8926;49.720;6.576;2023-06-01T05:53:46;1.37;;;1.30;;
17614;SDS011;8926;49.720;6.576;2023-06-01T05:56:12;1.70;;;1.47;;
17614;SDS011;8926;49.720;6.576;2023-06-01T05:58:37;1.30;;;1.20;;
17614;SDS011;8926;49.720;6.576;2023-06-01T06:01:03;1.40;;;1.30;;
17614;SDS011;8926;49.720;6.576;2023-06-01T06:03:28;1.77;;;1.40;;
17614;SDS011;8926;49.720;6.576;2023-06-01T06:05:54;2.27;;;1.90;;
17614;SDS011;8926;49.720;6.576;2023-06-01T06:08:19;2.17;;;1.70;;
17614;SDS011;8926;49.720;6.576;2023-06-01T06:10:45;3.07;;;1.53;;
17614;SDS011;8926;49.720;6.576;2023-06-01T06:13:10;2.43;;;1.70;;
17614;SDS011;8926;49.720;6.576;2023-06-01T06:15:36;1.80;;;1.70;;
17614;SDS011;8926;49.720;6.576;2023-06-01T06:18:01;2.40;;;1.70;;
17614;SDS011;8926;49.720;6.576;2023-06-01T06:20:27;2.17;;;1.80;;
17614;SDS011;8926;49.720;6.576;2023-06-01T06:22:53;1.77;;;1.67;;
17614;SDS011;8926;49.720;6.576;2023-06-01T06:25:18;1.77;;;1.67;;
17614;SDS011;8926;49.720;6.576;2023-06-01T06:27:44;2.13;;;1.87;;
17614;SDS011;8926;49.720;6.576;2023-06-01T06:30:10;1.80;;;1.70;;
17614;SDS011;8926;49.720;6.576;2023-06-01T06:32:36;1.93;;;1.67;;
17614;SDS011;8926;49.720;6.576;2023-06-01T06:35:01;1.87;;;1.77;;
17614;SDS011;8926;49.720;6.576;2023-06-01T06:37:27;1.87;;;1.70;;
17614;SDS011;8926;49.720;6.576;2023-06-01T06:39:54;1.90;;;1.73;;
17614;SDS011;8926;49.720;6.576;2023-06-01T06:42:19;1.73;;;1.63;;
17614;SDS011;8926;49.720;6.576;2023-06-01T06:44:44;1.80;;;1.70;;
17614;SDS011;8926;49.720;6.576;2023-06-01T06:47:10;1.83;;;1.60;;
17614;SDS011;8926;49.720;6.576;2023-06-01T06:49:39;2.30;;;1.53;;
17614;SDS011;8926;49.720;6.576;2023-06-01T06:52:05;1.57;;;1.47;;
17614;SDS011;8926;49.720;6.576;2023-06-01T06:54:30;2.10;;;1.90;;
17614;SDS011;8926;49.720;6.576;2023-06-01T06:56:56;2.23;;;2.03;;
17614;SDS011;8926;49.720;6.576;2023-06-01T06:59:21;2.20;;;1.80;;
17614;SDS011;8926;49.720;6.576;2023-06-01T07:01:47;3.43;;;1.70;;
17614;SDS011;8926;49.720;6.576;2023-06-01T07:04:12;3.33;;;2.03;;
17614;SDS011;8926;49.720;6.576;2023-06-01T07:06:37;2.47;;;1.70;;
17614;SDS011;8926;49.720;6.576;2023-06-01T07:09:03;1.50;;;1.40;;
17614;SDS011;8926;49.720;6.576;2023-06-01T07:11:30;1.50;;;1.40;;
17614;SDS011;8926;49.720;6.576;2023-06-01T07:13:55;3.13;;;1.47;;
17614;SDS011;8926;49.720;6.576;2023-06-01T07:16:22;1.80;;;1.70;;
17614;SDS011;8926;49.720;6.576;2023-06-01T07:18:49;2.90;;;2.03;;
17614;SDS011;8926;49.720;6.576;2023-06-01T07:21:16;1.83;;;1.67;;
17614;SDS011;8926;49.720;6.576;2023-06-01T07:23:41;2.50;;;1.20;;
17614;SDS011;8926;49.720;6.576;2023-06-01T07:26:07;1.63;;;1.53;;
17614;SDS011;8926;49.720;6.576;2023-06-01T07:28:33;1.50;;;1.40;;
17614;SDS011;8926;49.720;6.576;2023-06-01T07:30:58;2.63;;;1.80;;
17614;SDS011;8926;49.720;6.576;2023-06-01T07:33:23;5.13;;;1.90;;
17614;SDS011;8926;49.720;6.576;2023-06-01T07:35:50;2.27;;;1.60;;
17614;SDS011;8926;49.720;6.576;2023-06-01T07:38:18;1.50;;;1.40;;
17614;SDS011;8926;49.720;6.576;2023-06-01T07:40:44;1.43;;;1.33;;
17614;SDS011;8926;49.720;6.576;2023-06-01T07:43:09;1.70;;;1.60;;
17614;SDS011;8926;49.720;6.576;2023-06-01T07:45:34;1.53;;;1.43;;
17614;SDS011;8926;49.720;6.576;2023-06-01T07:48:00;3.20;;;1.90;;
17614;SDS011;8926;49.720;6.576;2023-06-01T07:50:26;2.03;;;1.60;;
17614;SDS011;8926;49.720;6.576;2023-06-01T07:52:55;1.50;;;1.40;;
17614;SDS011;8926;49.720;6.576;2023-06-01T07:55:21;4.03;;;2.20;;
17614;SDS011;8926;49.720;6.576;2023-06-01T07:57:46;1.50;;;1.40;;
17614;SDS011;8926;49.720;6.576;2023-06-01T08:00:12;1.70;;;1.60;;
17614;SDS011;8926;49.720;6.576;2023-06-01T08:02:38;1.73;;;1.50;;
17614;SDS011;8926;49.720;6.576;2023-06-01T08:05:04;2.63;;;1.63;;
17614;SDS011;8926;49.720;6.576;2023-06-01T08:07:30;2.57;;;1.87;;
17614;SDS011;8926;49.720;6.576;2023-06-01T08:09:56;2.80;;;1.57;;
17614;SDS011;8926;49.720;6.576;2023-06-01T08:12:22;1.50;;;1.40;;
17614;SDS011;8926;49.720;6.576;2023-06-01T08:14:48;2.30;;;1.70;;
17614;SDS011;8926;49.720;6.576;2023-06-01T08:17:13;1.60;;;1.50;;
17614;SDS011;8926;49.720;6.576;2023-06-01T08:19:40;2.83;;;1.93;;
17614;SDS011;8926;49.720;6.576;2023-06-01T08:22:07;2.23;;;1.53;;
17614;SDS011;8926;49.720;6.576;2023-06-01T08:24:32;2.70;;;1.70;;
17614;SDS011;8926;49.720;6.576;2023-06-01T08:26:58;2.20;;;1.37;;
17614;SDS011;8926;49.720;6.576;2023-06-01T08:29:23;1.50;;;1.40;;
17614;SDS011;8926;49.720;6.576;2023-06-01T08:31:49;1.80;;;1.70;;
17614;SDS011;8926;49.720;6.576;2023-06-01T08:34:14;4.07;;;1.43;;
17614;SDS011;8926;49.720;6.576;2023-06-01T08:36:40;2.47;;;1.80;;
17614;SDS011;8926;49.720;6.576;2023-06-01T08:39:21;1.60;;;1.50;;
17614;SDS011;8926;49.720;6.576;2023-06-01T08:41:54;3.03;;;1.67;;
17614;SDS011;8926;49.720;6.576;2023-06-01T08:44:35;2.00;;;1.60;;
17614;SDS011;8926;49.720;6.576;2023-06-01T08:47:03;1.87;;;1.70;;
17614;SDS011;8926;49.720;6.576;2023-06-01T08:49:32;1.50;;;1.40;;
17614;SDS011;8926;49.720;6.576;2023-06-01T08:51:59;1.83;;;1.30;;
17614;SDS011;8926;49.720;6.576;2023-06-01T08:54:27;2.37;;;1.63;;
17614;SDS011;8926;49.720;6.576;2023-06-01T08:56:56;3.50;;;1.67;;
17614;SDS011;8926;49.720;6.576;2023-06-01T08:59:24;2.27;;;1.60;;
17614;SDS011;8926;49.720;6.576;2023-06-01T09:01:49;2.03;;;1.50;;
17614;SDS011;8926;49.720;6.576;2023-06-01T09:04:15;1.30;;;1.20;;
17614;SDS011;8926;49.720;6.576;2023-06-01T09:06:41;1.43;;;1.33;;
17614;SDS011;8926;49.720;6.576;2023-06-01T09:09:07;1.73;;;1.60;;
17614;SDS011;8926;49.720;6.576;2023-06-01T09:11:36;1.40;;;1.30;;
17614;SDS011;8926;49.720;6.576;2023-06-01T09:14:01;1.73;;;1.63;;
17614;SDS011;8926;49.720;6.576;2023-06-01T09:16:35;1.73;;;1.43;;
17614;SDS011;8926;49.720;6.576;2023-06-01T09:19:01;1.97;;;1.73;;
17614;SDS011;8926;49.720;6.576;2023-06-01T09:21:27;2.07;;;1.70;;
17614;SDS011;8926;49.720;6.576;2023-06-01T09:23:52;1.77;;;1.60;;
17614;SDS011;8926;49.720;6.576;2023-06-01T09:26:18;1.67;;;1.47;;
17614;SDS011;8926;49.720;6.576;2023-06-01T09:31:34;1.90;;;1.43;;
17614;SDS011;8926;49.720;6.576;2023-06-01T09:34:00;1.43;;;1.27;;
17614;SDS011;8926;49.720;6.576;2023-06-01T09:36:29;1.73;;;1.50;;
17614;SDS011;8926;49.720;6.576;2023-06-01T09:39:04;1.47;;;1.37;;
17614;SDS011;8926;49.720;6.576;2023-06-01T09:42:18;1.20;;;1.10;;
17614;SDS011;8926;49.720;6.576;2023-06-01T09:47:02;1.37;;;1.27;;
17614;SDS011;8926;49.720;6.576;2023-06-01T09:49:32;3.77;;;1.50;;
17614;SDS011;8926;49.720;6.576;2023-06-01T09:54:36;2.17;;;1.50;;
17614;SDS011;8926;49.720;6.576;2023-06-01T09:57:07;1.67;;;1.57;;
17614;SDS011;8926;49.720;6.576;2023-06-01T09:59:40;1.83;;;1.40;;
17614;SDS011;8926;49.720;6.576;2023-06-01T10:02:19;1.53;;;1.37;;
17614;SDS011;8926;49.720;6.576;2023-06-01T10:04:53;1.30;;;1.20;;
17614;SDS011;8926;49.720;6.576;2023-06-01T10:07:26;1.53;;;1.00;;
17614;SDS011;8926;49.720;6.576;2023-06-01T10:09:54;1.23;;;1.13;;
17614;SDS011;8926;49.720;6.576;2023-06-01T10:12:21;2.77;;;1.37;;
17614;SDS011;8926;49.720;6.576;2023-06-01T10:14:47;1.50;;;1.40;;
17614;SDS011;8926;49.720;6.576;2023-06-01T10:17:13;1.03;;;1.03;;
17614;SDS011;8926;49.720;6.576;2023-06-01T10:19:42;5.83;;;1.70;;
17614;SDS011;8926;49.720;6.576;2023-06-01T10:22:08;1.83;;;1.47;;
17614;SDS011;8926;49.720;6.576;2023-06-01T10:24:36;1.60;;;1.50;;
17614;SDS011;8926;49.720;6.576;2023-06-01T10:27:15;1.40;;;1.30;;
17614;SDS011;8926;49.720;6.576;2023-06-01T10:29:46;1.53;;;1.40;;
17614;SDS011;8926;49.720;6.576;2023-06-01T10:35:02;1.33;;;1.13;;
17614;SDS011;8926;49.720;6.576;2023-06-01T10:37:31;1.20;;;1.07;;
17614;SDS011;8926;49.720;6.576;2023-06-01T10:42:43;1.27;;;1.17;;
17614;SDS011;8926;49.720;6.576;2023-06-01T10:48:09;1.80;;;1.40;;
17614;SDS011;8926;49.720;6.576;2023-06-01T10:50:35;0.87;;;0.87;;
17614;SDS011;8926;49.720;6.576;2023-06-01T11:01:34;1.00;;;1.00;;
17614;SDS011;8926;49.720;6.576;2023-06-01T11:04:01;1.03;;;1.03;;
17614;SDS011;8926;49.720;6.576;2023-06-01T11:06:30;1.30;;;1.20;;
17614;SDS011;8926;49.720;6.576;2023-06-01T11:08:59;1.47;;;1.20;;
17614;SDS011;8926;49.720;6.576;2023-06-01T11:14:13;1.03;;;0.93;;
17614;SDS011;8926;49.720;6.576;2023-06-01T11:16:39;1.30;;;1.20;;
17614;SDS011;8926;49.720;6.576;2023-06-01T11:19:05;0.90;;;0.90;;
17614;SDS011;8926;49.720;6.576;2023-06-01T11:21:39;1.80;;;1.37;;
17614;SDS011;8926;49.720;6.576;2023-06-01T11:24:12;1.40;;;1.30;;
17614;SDS011;8926;49.720;6.576;2023-06-01T11:29:10;1.80;;;1.40;;
17614;SDS011;8926;49.720;6.576;2023-06-01T11:31:52;1.43;;;1.30;;
17614;SDS011;8926;49.720;6.576;2023-06-01T11:34:19;1.13;;;1.10;;
17614;SDS011;8926;49.720;6.576;2023-06-01T11:37:12;1.33;;;1.23;;
17614;SDS011;8926;49.720;6.576;2023-06-01T11:39:38;1.30;;;1.13;;
17614;SDS011;8926;49.720;6.576;2023-06-01T11:42:09;1.17;;;1.07;;
17614;SDS011;8926;49.720;6.576;2023-06-01T11:44:40;1.13;;;1.00;;
17614;SDS011;8926;49.720;6.576;2023-06-01T11:47:07;1.80;;;1.30;;
17614;SDS011;8926;49.720;6.576;2023-06-01T11:49:43;1.50;;;1.40;;
17614;SDS011;8926;49.720;6.576;2023-06-01T11:52:09;2.00;;;1.33;;
17614;SDS011;8926;49.720;6.576;2023-06-01T11:54:35;1.67;;;1.23;;
17614;SDS011;8926;49.720;6.576;2023-06-01T11:57:02;1.30;;;1.20;;
17614;SDS011;8926;49.720;6.576;2023-06-01T11:59:35;0.90;;;0.90;;
17614;SDS011;8926;49.720;6.576;2023-06-01T12:02:16;1.50;;;1.40;;
17614;SDS011;8926;49.720;6.576;2023-06-01T12:04:55;1.30;;;1.20;;
17614;SDS011;8926;49.720;6.576;2023-06-01T12:07:25;1.83;;;1.20;;
17614;SDS011;8926;49.720;6.576;2023-06-01T12:09:54;0.97;;;0.90;;
17614;SDS011;8926;49.720;6.576;2023-06-01T12:12:23;3.13;;;1.20;;
17614;SDS011;8926;49.720;6.576;2023-06-01T12:14:50;1.87;;;1.23;;
17614;SDS011;8926;49.720;6.576;2023-06-01T12:17:16;1.43;;;1.33;;
17614;SDS011;8926;49.720;6.576;2023-06-01T12:19:45;1.47;;;1.37;;
17614;SDS011;8926;49.720;6.576;2023-06-01T12:22:14;1.37;;;1.30;;
17614;SDS011;8926;49.720;6.576;2023-06-01T12:24:41;1.00;;;1.00;;
17614;SDS011;8926;49.720;6.576;2023-06-01T12:27:15;0.97;;;0.80;;
17614;SDS011;8926;49.720;6.576;2023-06-01T12:29:44;1.47;;;1.00;;
17614;SDS011;8926;49.720;6.576;2023-06-01T12:32:12;2.50;;;1.40;;
17614;SDS011;8926;49.720;6.576;2023-06-01T12:34:40;1.73;;;1.13;;
17614;SDS011;8926;49.720;6.576;2023-06-01T12:39:40;1.20;;;0.87;;
17614;SDS011;8926;49.720;6.576;2023-06-01T12:42:06;1.10;;;1.00;;
17614;SDS011;8926;49.720;6.576;2023-06-01T12:44:33;5.07;;;1.10;;
17614;SDS011;8926;49.720;6.576;2023-06-01T12:46:59;1.27;;;1.10;;
17614;SDS011;8926;49.720;6.576;2023-06-01T12:49:25;1.40;;;1.30;;
17614;SDS011;8926;49.720;6.576;2023-06-01T12:51:50;1.33;;;1.20;;
17614;SDS011;8926;49.720;6.576;2023-06-01T12:54:16;1.23;;;1.13;;
17614;SDS011;8926;49.720;6.576;2023-06-01T12:56:42;0.90;;;0.80;;
17614;SDS011;8926;49.720;6.576;2023-06-01T12:59:08;1.30;;;1.20;;
17614;SDS011;8926;49.720;6.576;2023-06-01T13:01:34;1.23;;;1.17;;
17614;SDS011;8926;49.720;6.576;2023-06-01T13:03:59;1.30;;;1.20;;
17614;SDS011;8926;49.720;6.576;2023-06-01T13:06:29;0.90;;;0.90;;
17614;SDS011;8926;49.720;6.576;2023-06-01T13:08:54;1.50;;;1.20;;
17614;SDS011;8926;49.720;6.576;2023-06-01T13:11:20;1.30;;;1.20;;
17614;SDS011;8926;49.720;6.576;2023-06-01T13:13:47;2.00;;;1.17;;
17614;SDS011;8926;49.720;6.576;2023-06-01T13:16:13;1.43;;;1.20;;
17614;SDS011;8926;49.720;6.576;2023-06-01T13:18:39;1.60;;;1.50;;
17614;SDS011;8926;49.720;6.576;2023-06-01T13:21:05;1.07;;;1.07;;
17614;SDS011;8926;49.720;6.576;2023-06-01T13:23:30;1.50;;;1.40;;
17614;SDS011;8926;49.720;6.576;2023-06-01T13:25:55;1.27;;;1.17;;
17614;SDS011;8926;49.720;6.576;2023-06-01T13:28:21;4.30;;;1.30;;
17614;SDS011;8926;49.720;6.576;2023-06-01T13:30:46;1.87;;;1.40;;
17614;SDS011;8926;49.720;6.576;2023-06-01T13:33:11;1.80;;;1.43;;
17614;SDS011;8926;49.720;6.576;2023-06-01T13:35:37;1.73;;;1.50;;
17614;SDS011;8926;49.720;6.576;2023-06-01T13:38:02;1.93;;;1.70;;
17614;SDS011;8926;49.720;6.576;2023-06-01T13:40:28;1.10;;;1.10;;
17614;SDS011;8926;49.720;6.576;2023-06-01T13:42:53;1.30;;;1.20;;
17614;SDS011;8926;49.720;6.576;2023-06-01T13:45:19;0.90;;;0.90;;
17614;SDS011;8926;49.720;6.576;2023-06-01T13:47:46;1.50;;;1.20;;
17614;SDS011;8926;49.720;6.576;2023-06-01T13:50:12;1.40;;;0.80;;
17614;SDS011;8926;49.720;6.576;2023-06-01T13:52:38;1.40;;;1.30;;
17614;SDS011;8926;49.720;6.576;2023-06-01T13:55:05;1.30;;;1.20;;
17614;SDS011;8926;49.720;6.576;2023-06-01T13:57:31;1.80;;;1.57;;
17614;SDS011;8926;49.720;6.576;2023-06-01T13:59:57;2.37;;;1.27;;
17614;SDS011;8926;49.720;6.576;2023-06-01T14:02:22;1.87;;;1.30;;
17614;SDS011;8926;49.720;6.576;2023-06-01T14:04:47;1.50;;;1.33;;
17614;SDS011;8926;49.720;6.576;2023-06-01T14:07:13;1.50;;;1.40;;
17614;SDS011;8926;49.720;6.576;2023-06-01T14:09:38;1.13;;;1.13;;
17614;SDS011;8926;49.720;6.576;2023-06-01T14:12:03;1.40;;;1.30;;
17614;SDS011;8926;49.720;6.576;2023-06-01T14:14:29;1.50;;;1.40;;
17614;SDS011;8926;49.720;6.576;2023-06-01T14:16:54;1.00;;;1.00;;
17614;SDS011;8926;49.720;6.576;2023-06-01T14:19:19;1.60;;;1.40;;
17614;SDS011;8926;49.720;6.576;2023-06-01T14:21:45;2.60;;;1.33;;
17614;SDS011;8926;49.720;6.576;2023-06-01T14:24:10;1.33;;;1.23;;
17614;SDS011;8926;49.720;6.576;2023-06-01T14:26:35;1.43;;;1.20;;
17614;SDS011;8926;49.720;6.576;2023-06-01T14:29:00;1.10;;;1.10;;
17614;SDS011;8926;49.720;6.576;2023-06-01T14:31:26;4.07;;;1.30;;
17614;SDS011;8926;49.720;6.576;2023-06-01T14:33:51;1.63;;;1.30;;
17614;SDS011;8926;49.720;6.576;2023-06-01T14:36:16;0.97;;;0.97;;
17614;SDS011;8926;49.720;6.576;2023-06-01T14:38:42;1.23;;;1.20;;
17614;SDS011;8926;49.720;6.576;2023-06-01T14:41:07;2.57;;;1.40;;
17614;SDS011;8926;49.720;6.576;2023-06-01T14:43:32;1.67;;;1.57;;
17614;SDS011;8926;49.720;6.576;2023-06-01T14:45:58;1.57;;;1.43;;
17614;SDS011;8926;49.720;6.576;2023-06-01T14:48:24;1.17;;;1.17;;
17614;SDS011;8926;49.720;6.576;2023-06-01T14:50:49;1.40;;;1.30;;
17614;SDS011;8926;49.720;6.576;2023-06-01T14:53:15;1.60;;;1.50;;
17614;SDS011;8926;49.720;6.576;2023-06-01T14:55:40;1.87;;;1.77;;
17614;SDS011;8926;49.720;6.576;2023-06-01T14:58:06;1.83;;;1.73;;
17614;SDS011;8926;49.720;6.576;2023-06-01T15:00:32;3.87;;;2.37;;
17614;SDS011;8926;49.720;6.576;2023-06-01T15:02:57;2.90;;;1.63;;
17614;SDS011;8926;49.720;6.576;2023-06-01T15:05:23;2.20;;;2.00;;
17614;SDS011;8926;49.720;6.576;2023-06-01T15:07:48;2.47;;;2.27;;
17614;SDS011;8926;49.720;6.576;2023-06-01T15:10:14;2.83;;;2.63;;
17614;SDS011;8926;49.720;6.576;2023-06-01T15:12:40;2.30;;;2.20;;
17614;SDS011;8926;49.720;6.576;2023-06-01T15:15:06;1.80;;;1.70;;
17614;SDS011;8926;49.720;6.576;2023-06-01T15:17:31;2.40;;;2.30;;
17614;SDS011;8926;49.720;6.576;2023-06-01T15:19:57;2.17;;;2.07;;
17614;SDS011;8926;49.720;6.576;2023-06-01T15:22:22;3.20;;;3.00;;
17614;SDS011;8926;49.720;6.576;2023-06-01T15:24:47;2.87;;;2.63;;
17614;SDS011;8926;49.720;6.576;2023-06-01T15:27:12;3.03;;;2.83;;
17614;SDS011;8926;49.720;6.576;2023-06-01T15:29:38;3.07;;;2.70;;
17614;SDS011;8926;49.720;6.576;2023-06-01T15:32:03;2.10;;;2.00;;
17614;SDS011;8926;49.720;6.576;2023-06-01T15:34:29;1.90;;;1.80;;
17614;SDS011;8926;49.720;6.576;2023-06-01T15:36:54;2.10;;;2.00;;
17614;SDS011;8926;49.720;6.576;2023-06-01T15:39:20;1.83;;;1.73;;
17614;SDS011;8926;49.720;6.576;2023-06-01T15:41:46;2.70;;;2.50;;